createdAt,value
2023-04-16T00:01:47.462Z,13.65
2023-04-16T00:06:12.595Z,13.95
2023-04-16T00:10:37.137Z,12.70
2023-04-16T00:15:02.525Z,11.35
2023-04-16T00:19:27.572Z,13.00
2023-04-16T00:23:51.902Z,13.45
2023-04-16T00:28:16.245Z,12.70
2023-04-16T00:32:41.670Z,12.85
2023-04-16T00:37:05.592Z,12.63
2023-04-16T00:41:29.683Z,13.17
2023-04-16T00:45:56.115Z,13.40
2023-04-16T00:50:22.367Z,11.68
2023-04-16T00:54:47.134Z,12.43
2023-04-16T00:59:11.504Z,13.10
2023-04-16T01:03:39.829Z,13.75
2023-04-16T01:08:05.606Z,14.07
2023-04-16T01:12:29.477Z,13.93
2023-04-16T01:16:53.687Z,13.52
2023-04-16T01:21:18.873Z,13.30
2023-04-16T01:25:42.956Z,13.70
2023-04-16T01:30:09.036Z,12.93
2023-04-16T01:34:49.341Z,12.90
2023-04-16T01:39:16.602Z,13.80
2023-04-16T01:43:41.298Z,13.48
2023-04-16T01:48:05.872Z,13.05
2023-04-16T01:52:30.208Z,12.30
2023-04-16T01:56:55.681Z,13.53
2023-04-16T02:01:20.175Z,12.98
2023-04-16T02:05:45.369Z,14.07
2023-04-16T02:10:10.790Z,14.10
2023-04-16T02:14:38.398Z,14.15
2023-04-16T02:19:02.455Z,15.07
2023-04-16T02:23:29.865Z,16.00
2023-04-16T02:27:55.938Z,15.48
2023-04-16T02:32:31.180Z,15.43
2023-04-16T02:36:58.346Z,15.30
2023-04-16T02:41:22.988Z,14.30
2023-04-16T02:45:46.948Z,14.40
2023-04-16T02:50:12.851Z,15.52
2023-04-16T02:54:36.841Z,15.30
2023-04-16T02:59:00.857Z,15.00
2023-04-16T03:03:25.427Z,14.68
2023-04-16T03:07:56.678Z,14.90
2023-04-16T03:12:20.911Z,14.43
2023-04-16T03:16:45.239Z,14.70
2023-04-16T03:21:09.207Z,15.02
2023-04-16T03:25:34.928Z,12.90
2023-04-16T03:29:59.225Z,14.55
2023-04-16T03:34:24.156Z,15.65
2023-04-16T03:38:48.203Z,16.70
2023-04-16T03:43:14.533Z,16.17
2023-04-16T03:47:40.697Z,16.00
2023-04-16T03:52:06.175Z,14.33
2023-04-16T03:56:30.615Z,15.02
2023-04-16T04:00:56.109Z,16.42
2023-04-16T04:05:21.109Z,14.77
2023-04-16T04:09:46.035Z,14.50
2023-04-16T04:14:10.426Z,15.07
2023-04-16T04:18:35.889Z,15.23
2023-04-16T04:23:02.426Z,14.03
2023-04-16T04:27:27.494Z,13.85
2023-04-16T04:31:51.655Z,15.32
2023-04-16T04:36:17.275Z,14.57
2023-04-16T04:40:41.557Z,14.70
2023-04-16T04:45:08.006Z,14.38
2023-04-16T04:49:33.218Z,13.50
2023-04-16T04:53:58.654Z,13.53
2023-04-16T04:58:22.567Z,13.60
2023-04-16T05:02:47.462Z,12.27
2023-04-16T05:07:11.658Z,12.33
2023-04-16T05:11:36.971Z,12.02
2023-04-16T05:16:01.155Z,11.30
2023-04-16T05:20:25.231Z,10.87
2023-04-16T05:24:49.216Z,9.85
2023-04-16T05:29:14.826Z,10.77
2023-04-16T05:33:38.981Z,10.15
2023-04-16T05:38:04.540Z,11.47
2023-04-16T05:42:28.704Z,12.50
2023-04-16T05:46:54.257Z,11.10
2023-04-16T05:51:18.065Z,12.13
2023-04-16T05:55:41.901Z,11.05
2023-04-16T06:00:07.040Z,10.35
2023-04-16T06:04:37.719Z,10.70
2023-04-16T06:09:01.965Z,11.93
2023-04-16T06:13:26.604Z,10.95
2023-04-16T06:17:51.224Z,9.93
2023-04-16T06:22:16.848Z,8.80
2023-04-16T06:26:42.504Z,8.20
2023-04-16T06:31:06.744Z,8.00
2023-04-16T06:35:30.920Z,7.87
2023-04-16T06:39:56.061Z,8.20
2023-04-16T06:44:22.995Z,6.93
2023-04-16T06:48:47.130Z,6.53
2023-04-16T06:53:11.221Z,6.43
2023-04-16T06:57:37.574Z,6.13
2023-04-16T07:02:02.008Z,5.65
2023-04-16T07:06:27.126Z,6.20
2023-04-16T07:10:51.716Z,5.32
2023-04-16T07:15:17.523Z,4.82
2023-04-16T07:19:41.588Z,5.30
2023-04-16T07:24:05.687Z,5.55
2023-04-16T07:28:30.088Z,6.10
2023-04-16T07:32:55.943Z,6.27
2023-04-16T07:37:19.949Z,5.57
2023-04-16T07:41:45.107Z,5.43
2023-04-16T07:46:09.085Z,5.30
2023-04-16T07:50:34.560Z,5.53
2023-04-16T07:54:58.505Z,6.20
2023-04-16T07:59:23.909Z,5.50
2023-04-16T08:03:48.677Z,5.30
2023-04-16T08:08:13.954Z,4.50
2023-04-16T08:12:38.115Z,5.03
2023-04-16T08:17:02.032Z,4.87
2023-04-16T08:21:26.172Z,4.68
2023-04-16T08:25:57.454Z,4.50
2023-04-16T08:30:21.999Z,6.25
2023-04-16T08:34:46.181Z,5.60
2023-04-16T08:39:10.418Z,5.15
2023-04-16T08:43:39.856Z,5.15
2023-04-16T08:48:06.851Z,5.53
2023-04-16T08:52:32.776Z,5.88
2023-04-16T08:56:58.969Z,4.90
2023-04-16T09:01:26.620Z,4.87
2023-04-16T09:05:51.630Z,3.95
2023-04-16T09:10:16.392Z,5.88
2023-04-16T09:14:41.985Z,4.80
2023-04-16T09:19:07.555Z,4.83
2023-04-16T09:23:31.838Z,3.78
2023-04-16T09:27:55.787Z,3.58
2023-04-16T09:32:25.897Z,4.03
2023-04-16T09:36:51.507Z,4.18
2023-04-16T09:41:17.281Z,4.68
2023-04-16T09:45:51.853Z,4.97
2023-04-16T09:50:18.818Z,5.18
2023-04-16T09:54:49.715Z,5.18
2023-04-16T09:59:18.735Z,5.72
2023-04-16T10:03:43.349Z,5.47
2023-04-16T10:08:14.063Z,5.50
2023-04-16T10:12:39.451Z,5.47
2023-04-16T10:17:04.631Z,5.90
2023-04-16T10:21:33.884Z,5.53
2023-04-16T10:26:00.466Z,7.50
2023-04-16T10:30:26.919Z,9.37
2023-04-16T10:34:51.075Z,9.18
2023-04-16T10:39:18.756Z,10.10
2023-04-16T10:43:44.542Z,9.18
2023-04-16T10:48:11.816Z,10.17
2023-04-16T10:52:35.547Z,10.13
2023-04-16T10:57:02.984Z,9.88
2023-04-16T11:01:34.018Z,10.77
2023-04-16T11:06:11.935Z,9.30
2023-04-16T11:10:40.636Z,9.27
2023-04-16T11:15:06.763Z,7.87
2023-04-16T11:19:30.706Z,7.68
2023-04-16T11:23:56.856Z,7.75
2023-04-16T11:28:20.912Z,7.65
2023-04-16T11:32:46.130Z,7.87
2023-04-16T11:37:10.789Z,7.28
2023-04-16T11:41:36.082Z,7.30
2023-04-16T11:46:02.697Z,7.00
2023-04-16T11:50:30.193Z,6.97
2023-04-16T11:54:54.420Z,6.95
2023-04-16T11:59:22.797Z,6.90
2023-04-16T12:03:49.751Z,6.85
2023-04-16T12:08:14.438Z,6.50
2023-04-16T12:12:38.470Z,6.32
2023-04-16T12:17:22.868Z,6.57
2023-04-16T12:21:48.636Z,6.13
2023-04-16T12:26:12.599Z,6.05
2023-04-16T12:30:51.486Z,5.77
2023-04-16T12:35:32.689Z,5.07
2023-04-16T12:39:56.759Z,5.20
2023-04-16T12:44:20.817Z,5.50
2023-04-16T12:48:44.659Z,5.15
2023-04-16T12:53:11.522Z,5.18
2023-04-16T12:57:35.353Z,5.20
2023-04-16T13:01:59.353Z,5.60
2023-04-16T13:06:23.280Z,5.50
2023-04-16T13:10:48.574Z,6.10
2023-04-16T13:15:14.011Z,6.30
2023-04-16T13:19:37.931Z,6.50
2023-04-16T13:24:01.772Z,7.22
2023-04-16T13:28:27.530Z,7.67
2023-04-16T13:32:51.805Z,7.72
2023-04-16T13:37:15.873Z,7.97
2023-04-16T13:41:40.231Z,8.02
2023-04-16T13:46:06.188Z,6.70
2023-04-16T13:50:30.500Z,7.82
2023-04-16T13:54:54.571Z,7.47
2023-04-16T13:59:18.741Z,8.20
2023-04-16T14:03:44.459Z,8.00
2023-04-16T14:08:08.710Z,8.35
2023-04-16T14:12:33.189Z,8.67
2023-04-16T14:17:00.148Z,8.82
2023-04-16T14:21:27.132Z,8.23
2023-04-16T14:25:51.328Z,8.85
2023-04-16T14:30:16.610Z,8.53
2023-04-16T14:34:40.566Z,8.20
2023-04-16T14:39:07.466Z,8.15
2023-04-16T14:43:33.360Z,8.13
2023-04-16T14:47:57.375Z,7.38
2023-04-16T14:52:21.512Z,8.45
2023-04-16T14:56:47.440Z,8.27
2023-04-16T15:01:19.091Z,8.38
2023-04-16T15:05:43.471Z,9.70
2023-04-16T15:10:08.828Z,9.10
2023-04-16T15:14:36.460Z,8.93
2023-04-16T15:19:00.920Z,9.15
2023-04-16T15:23:25.784Z,8.88
2023-04-16T15:27:50.551Z,8.70
2023-04-16T15:32:16.308Z,8.13
2023-04-16T15:36:40.663Z,8.38
2023-04-16T15:41:00.960Z,7.83
2023-04-16T15:45:24.960Z,7.85
2023-04-16T15:49:50.296Z,8.52
2023-04-16T15:54:18.571Z,8.32
2023-04-16T15:58:42.583Z,8.23
2023-04-16T16:03:06.839Z,8.63
2023-04-16T16:07:32.729Z,9.05
2023-04-16T16:11:58.865Z,7.90
2023-04-16T16:16:25.687Z,8.13
2023-04-16T16:20:51.880Z,8.23
2023-04-16T16:25:17.305Z,8.50
2023-04-16T16:29:41.453Z,8.02
2023-04-16T16:34:05.687Z,8.98
2023-04-16T16:38:29.915Z,8.43
2023-04-16T16:42:55.733Z,7.43
2023-04-16T16:47:19.762Z,7.80
2023-04-16T16:51:45.954Z,7.63
2023-04-16T16:56:09.786Z,7.60
2023-04-16T17:00:35.380Z,8.35
2023-04-16T17:05:00.165Z,8.10
2023-04-16T17:09:24.189Z,8.23
2023-04-16T17:13:48.441Z,7.97
2023-04-16T17:18:13.912Z,8.57
2023-04-16T17:22:38.744Z,7.80
2023-04-16T17:27:03.307Z,7.23
2023-04-16T17:31:27.843Z,7.40
2023-04-16T17:35:53.238Z,7.80
2023-04-16T17:40:18.472Z,7.10
2023-04-16T17:44:43.358Z,8.15
2023-04-16T17:49:07.357Z,8.82
2023-04-16T17:53:32.622Z,8.60
2023-04-16T17:57:56.572Z,9.05
2023-04-16T18:02:21.087Z,9.45
2023-04-16T18:06:45.284Z,10.25
2023-04-16T18:11:10.589Z,9.63
2023-04-16T18:15:37.962Z,10.07
2023-04-16T18:20:02.417Z,9.50
2023-04-16T18:24:26.405Z,8.83
2023-04-16T18:28:51.850Z,9.35
2023-04-16T18:38:01.012Z,9.27
2023-04-16T18:42:45.083Z,10.02
2023-04-16T18:47:31.113Z,11.45
2023-04-16T18:52:15.264Z,11.20
2023-04-16T18:57:00.807Z,11.20
2023-04-16T19:01:45.500Z,12.18
2023-04-16T19:06:32.261Z,11.95
2023-04-16T19:11:16.372Z,11.10
2023-04-16T19:16:01.718Z,10.93
2023-04-16T19:20:46.160Z,12.07
2023-04-16T19:25:31.590Z,11.40
2023-04-16T19:30:15.925Z,10.82
2023-04-16T19:34:54.356Z,11.15
2023-04-16T19:39:33.711Z,11.50
2023-04-16T19:44:19.405Z,12.13
2023-04-16T19:49:03.478Z,13.30
2023-04-16T19:53:47.661Z,12.43
2023-04-16T19:58:31.883Z,11.83
2023-04-16T20:03:17.519Z,12.80
2023-04-16T20:08:02.103Z,12.57
2023-04-16T20:12:46.328Z,12.50
2023-04-16T20:17:30.623Z,12.50
2023-04-16T20:22:18.265Z,12.27
2023-04-16T20:27:02.627Z,11.48
2023-04-16T20:31:46.934Z,12.30
2023-04-16T20:36:31.884Z,11.82
2023-04-16T20:41:21.364Z,11.13
2023-04-16T20:46:06.187Z,10.73
2023-04-16T20:50:50.367Z,10.90
2023-04-16T20:55:34.506Z,10.93
2023-04-16T21:00:20.616Z,11.00
2023-04-16T21:05:05.537Z,10.27
2023-04-16T21:09:50.172Z,11.55
2023-04-16T21:14:34.417Z,11.38
2023-04-16T21:19:20.245Z,11.73
2023-04-16T21:24:04.473Z,12.00
2023-04-16T21:28:48.774Z,10.68
2023-04-16T21:33:33.051Z,11.43
2023-04-16T21:38:19.223Z,10.70
2023-04-16T21:43:03.442Z,9.10
2023-04-16T21:47:47.545Z,9.70
2023-04-16T21:52:32.915Z,8.55
2023-04-16T21:57:18.753Z,9.02
2023-04-16T22:02:03.069Z,8.60
2023-04-16T22:06:47.312Z,7.70
2023-04-16T22:11:31.713Z,8.45
2023-04-16T22:16:17.091Z,8.73
2023-04-16T22:21:01.518Z,8.17
2023-04-16T22:25:45.777Z,7.82
2023-04-16T22:30:29.981Z,8.02
2023-04-16T22:35:15.982Z,8.73
2023-04-16T22:40:00.277Z,7.70
2023-04-16T22:44:44.391Z,8.18
2023-04-16T22:49:33.022Z,8.32
2023-04-16T22:54:18.543Z,8.40
2023-04-16T22:59:02.685Z,8.25
2023-04-16T23:03:46.885Z,8.93
2023-04-16T23:08:33.021Z,9.17
2023-04-16T23:13:18.562Z,8.90
2023-04-16T23:18:02.671Z,9.10
2023-04-16T23:22:47.086Z,8.70
2023-04-16T23:27:34.140Z,9.57
2023-04-16T23:32:19.720Z,9.30
2023-04-16T23:37:03.853Z,9.30
2023-04-16T23:41:48.003Z,9.73
2023-04-16T23:46:32.217Z,10.23
2023-04-16T23:51:17.971Z,10.57
2023-04-16T23:56:04.844Z,10.33
